Time;durP1;ratioP1;P1;durP2;ratioP2;P2;SDS_P1;SDS_P2;PMS_P1;PMS_P2;Temp;Humidity;BMP_temperature;BMP_pressure;BME280_temperature;BME280_humidity;BME280_pressure;Samples;Min_cycle;Max_cycle;Signal;HPM_P1;HPM_P2
2023/01/16 00:01:31;;;;;;;2.22;1.23;;;;;;;1.89;100.00;99369.25;5092493;28;20027;-76
2023/01/16 00:04:21;;;;;;;3.25;1.67;;;;;;;1.89;100.00;99374.13;5074525;28;20247;-76
2023/01/16 00:06:48;;;;;;;2.15;1.35;;;;;;;1.90;100.00;99373.63;5074864;28;20036;-77
2023/01/16 00:09:14;;;;;;;4.47;1.50;;;;;;;1.93;100.00;99363.50;5075454;28;20040;-77
2023/01/16 00:11:40;;;;;;;3.55;1.95;;;;;;;1.97;100.00;99369.00;5092770;28;20032;-76
2023/01/16 00:14:07;;;;;;;2.38;1.15;;;;;;;1.88;100.00;99369.72;5092206;28;20020;-76
2023/01/16 00:16:34;;;;;;;3.60;1.40;;;;;;;1.96;100.00;99373.06;5074404;28;20049;-75
2023/01/16 00:18:59;;;;;;;2.90;1.15;;;;;;;1.96;100.00;99373.06;5092179;28;20540;-76
2023/01/16 00:21:28;;;;;;;2.13;1.50;;;;;;;1.92;100.00;99364.72;5074319;28;20036;-77
2023/01/16 00:23:54;;;;;;;3.63;1.23;;;;;;;1.97;100.00;99369.00;5074851;28;20031;-76
2023/01/16 00:26:21;;;;;;;1.65;1.20;;;;;;;1.97;100.00;99375.41;5074360;28;20270;-76
2023/01/16 00:28:50;;;;;;;1.85;1.08;;;;;;;1.96;100.00;99365.38;5055553;28;20147;-77
2023/01/16 00:31:16;;;;;;;1.67;0.85;;;;;;;1.97;100.00;99363.38;5092287;28;20341;-78
2023/01/16 00:33:42;;;;;;;1.35;1.10;;;;;;;2.00;100.00;99368.84;5074410;28;20031;-76
2023/01/16 00:36:19;;;;;;;0.95;0.82;;;;;;;2.01;100.00;99366.84;5073949;28;20115;-76
2023/01/16 00:38:50;;;;;;;2.15;0.98;;;;;;;2.02;100.00;99357.94;5092155;28;20032;-77
2023/01/16 00:41:24;;;;;;;1.88;1.50;;;;;;;2.07;100.00;99356.56;5092056;28;20536;-77
2023/01/16 00:43:50;;;;;;;1.58;0.70;;;;;;;2.05;100.00;99354.19;5092111;28;20024;-76
2023/01/16 00:46:16;;;;;;;1.10;1.00;;;;;;;2.08;100.00;99366.59;5093032;28;20487;-77
2023/01/16 00:48:42;;;;;;;1.38;1.27;;;;;;;2.11;100.00;99358.00;5093388;28;20385;-77
2023/01/16 00:51:08;;;;;;;2.20;1.20;;;;;;;2.11;100.00;99355.19;5093424;28;20031;-77
2023/01/16 00:53:33;;;;;;;2.00;1.30;;;;;;;2.14;100.00;99364.75;5093095;28;20024;-77
2023/01/16 00:55:59;;;;;;;4.50;1.60;;;;;;;2.08;100.00;99347.66;5093081;28;20341;-77
2023/01/16 00:58:26;;;;;;;2.47;1.27;;;;;;;2.16;100.00;99351.78;5092601;28;20124;-77
2023/01/16 01:00:53;;;;;;;4.60;1.30;;;;;;;2.15;100.00;99357.84;5093321;28;20111;-76
2023/01/16 01:03:19;;;;;;;1.38;1.23;;;;;;;2.13;100.00;99349.09;5093033;28;20081;-76
2023/01/16 01:05:44;;;;;;;2.05;1.40;;;;;;;2.17;100.00;99346.94;5096060;28;20038;-75
2023/01/16 01:08:11;;;;;;;0.82;0.82;;;;;;;2.18;100.00;99349.28;5096727;28;20103;-75
2023/01/16 01:10:39;;;;;;;2.55;1.35;;;;;;;2.17;100.00;99339.25;5096788;28;20031;-77
2023/01/16 01:13:07;;;;;;;2.40;1.17;;;;;;;2.21;100.00;99339.91;5096718;28;20024;-76
2023/01/16 01:15:33;;;;;;;1.75;1.15;;;;;;;2.24;100.00;99338.97;5078588;28;20130;-76
2023/01/16 01:17:59;;;;;;;4.85;1.55;;;;;;;2.21;100.00;99325.81;5095771;28;20043;-76
2023/01/16 01:20:25;;;;;;;2.97;1.20;;;;;;;2.21;100.00;99330.66;5096469;28;20073;-78
2023/01/16 01:22:51;;;;;;;1.13;0.85;;;;;;;2.21;100.00;99317.38;5096375;28;20035;-76
2023/01/16 01:25:17;;;;;;;1.67;1.30;;;;;;;2.21;100.00;99322.22;5096763;28;20015;-75
2023/01/16 01:27:45;;;;;;;2.35;1.58;;;;;;;2.20;100.00;99320.63;5096863;28;20035;-76
2023/01/16 01:30:10;;;;;;;4.47;2.03;;;;;;;2.15;100.00;99322.00;5096324;28;20052;-76
2023/01/16 01:32:37;;;;;;;7.68;2.00;;;;;;;2.08;100.00;99319.47;5078208;28;20487;-75
2023/01/16 01:35:07;;;;;;;5.13;2.20;;;;;;;2.05;100.00;99314.75;5096310;28;20461;-76
2023/01/16 01:37:34;;;;;;;6.32;1.90;;;;;;;1.99;100.00;99304.53;5078235;28;20032;-76
2023/01/16 01:40:00;;;;;;;8.27;1.80;;;;;;;1.92;100.00;99306.38;5078531;28;20036;-75
2023/01/16 01:45:25;;;;;;;2.33;1.15;;;;;;;1.92;100.00;99314.81;5095925;28;20454;-76
2023/01/16 01:48:14;;;;;;;1.60;1.30;;;;;;;1.94;100.00;99305.13;5095954;28;20062;-75
2023/01/16 01:50:59;;;;;;;2.05;1.30;;;;;;;1.93;100.00;99309.97;5096757;28;20381;-75
2023/01/16 01:53:34;;;;;;;4.75;1.77;;;;;;;1.90;100.00;99302.44;5077832;28;20024;-73
2023/01/16 01:56:30;;;;;;;2.40;1.42;;;;;;;1.88;100.00;99288.81;5078155;28;20074;-72
2023/01/16 01:58:59;;;;;;;2.25;1.30;;;;;;;1.87;100.00;99289.28;5095265;28;20035;-73
2023/01/16 02:01:26;;;;;;;4.50;1.67;;;;;;;1.86;100.00;99285.66;5078490;28;20032;-73
2023/01/16 02:04:00;;;;;;;2.92;1.42;;;;;;;1.82;100.00;99289.88;5060337;28;20069;-72
2023/01/16 02:06:32;;;;;;;4.00;1.23;;;;;;;1.81;100.00;99279.84;5076183;28;20081;-72
2023/01/16 02:08:57;;;;;;;;;;;;;;;1.84;100.00;99281.75;5076641;28;20161;-71
2023/01/16 02:11:32;;;;;;;1.38;1.13;;;;;;;1.82;100.00;99284.22;5094279;28;20010;-72
2023/01/16 02:14:07;;;;;;;1.85;1.40;;;;;;;1.82;100.00;99278.59;5094496;28;20024;-72
2023/01/16 02:19:27;;;;;;;2.55;1.00;;;;;;;1.87;100.00;99284.44;5064753;28;20086;-71
2023/01/16 02:22:14;;;;;;;2.67;1.35;;;;;;;1.89;100.00;99278.34;5094285;28;20034;-73
2023/01/16 02:24:53;;;;;;;1.10;1.00;;;;;;;1.91;100.00;99276.63;5083816;28;20047;-73
2023/01/16 02:27:51;;;;;;;3.05;1.33;;;;;;;1.81;100.00;99254.50;5076211;28;20039;-72
2023/01/16 02:30:58;;;;;;;1.52;1.33;;;;;;;1.96;100.00;99269.63;5028754;28;20072;-72
2023/01/16 02:33:32;;;;;;;3.55;1.92;;;;;;;1.98;100.00;99263.53;5038688;28;20067;-72
2023/01/16 02:36:05;;;;;;;1.13;0.93;;;;;;;1.99;100.00;99254.63;5074133;28;20032;-72
2023/01/16 02:38:54;;;;;;;1.88;0.95;;;;;;;2.02;100.00;99261.34;5074470;28;20426;-72
2023/01/16 02:41:41;;;;;;;4.95;1.10;;;;;;;2.02;100.00;99261.34;5073622;28;20051;-71
2023/01/16 02:44:34;;;;;;;2.88;1.55;;;;;;;2.08;100.00;99259.53;5074798;28;20044;-70
2023/01/16 02:47:12;;;;;;;2.45;1.25;;;;;;;2.02;100.00;99258.53;5073489;28;20039;-72
2023/01/16 02:49:48;;;;;;;2.58;1.13;;;;;;;2.02;100.00;99241.63;5075132;28;20449;-72
2023/01/16 02:52:44;;;;;;;2.80;1.42;;;;;;;1.99;100.00;99240.53;5073289;28;20032;-73
2023/01/16 02:55:34;;;;;;;1.75;1.20;;;;;;;1.96;100.00;99235.81;5053502;28;20396;-72
2023/01/16 02:58:03;;;;;;;2.58;1.10;;;;;;;1.91;100.00;99234.38;5073336;28;20107;-72
2023/01/16 03:00:31;;;;;;;3.70;1.33;;;;;;;1.92;100.00;99235.16;5056703;28;20075;-74
2023/01/16 03:02:58;;;;;;;3.65;1.38;;;;;;;1.90;100.00;99234.84;5072928;28;20077;-73
2023/01/16 03:05:26;;;;;;;1.30;0.95;;;;;;;1.88;100.00;99229.69;5074188;28;20021;-73
2023/01/16 03:08:29;;;;;;;0.90;0.90;;;;;;;1.88;100.00;99217.63;5073324;28;20473;-73
2023/01/16 03:11:22;;;;;;;2.60;1.30;;;;;;;1.85;100.00;99221.34;5032807;28;20037;-73
2023/01/16 03:14:05;;;;;;;1.48;1.25;;;;;;;1.81;100.00;99220.69;5073506;28;20016;-73
2023/01/16 03:16:57;;;;;;;2.22;1.20;;;;;;;1.78;100.00;99233.69;5074348;28;20025;-73
2023/01/16 03:19:23;;;;;;;3.25;1.30;;;;;;;1.72;100.00;99238.31;5073964;28;20504;-72
2023/01/16 03:22:15;;;;;;;2.28;1.55;;;;;;;1.55;100.00;99233.34;5073925;28;20074;-73
2023/01/16 03:25:02;;;;;;;3.25;1.50;;;;;;;1.38;100.00;99225.09;5072650;28;20032;-73
2023/01/16 03:28:01;;;;;;;3.95;1.42;;;;;;;1.26;100.00;99227.94;5073941;28;20024;-72
2023/01/16 03:30:47;;;;;;;2.55;1.58;;;;;;;1.18;100.00;99235.84;5089086;28;20135;-73
2023/01/16 03:33:42;;;;;;;3.35;1.83;;;;;;;1.12;100.00;99231.25;5075921;28;20020;-73
2023/01/16 03:36:18;;;;;;;2.15;1.50;;;;;;;1.08;100.00;99230.59;5093914;28;20031;-74
2023/01/16 03:38:46;;;;;;;3.65;1.52;;;;;;;1.09;100.00;99232.19;5060550;28;20027;-73
2023/01/16 03:41:15;;;;;;;3.22;1.02;;;;;;;1.16;100.00;99229.13;5076396;28;20065;-74
2023/01/16 03:43:43;;;;;;;2.85;1.35;;;;;;;1.21;100.00;99234.16;5075744;28;20115;-74
2023/01/16 03:46:16;;;;;;;8.50;1.88;;;;;;;1.21;100.00;99220.88;5059048;28;20125;-73
2023/01/16 03:48:48;;;;;;;2.55;1.73;;;;;;;1.33;100.00;99231.31;5093668;28;20482;-73
2023/01/16 03:51:24;;;;;;;4.95;1.10;;;;;;;1.37;100.00;99220.69;5075974;28;20105;-74
2023/01/16 03:53:59;;;;;;;4.10;1.83;;;;;;;1.40;100.00;99219.78;5059624;28;20028;-73
2023/01/16 03:57:15;;;;;;;3.08;1.10;;;;;;;1.45;100.00;99221.25;5093914;28;20032;-74
2023/01/16 03:59:44;;;;;;;1.00;1.00;;;;;;;1.49;100.00;99210.63;5015378;28;20069;-73
2023/01/16 04:02:23;;;;;;;8.50;1.40;;;;;;;1.52;100.00;99220.97;5058636;28;20035;-74
2023/01/16 04:05:17;;;;;;;5.32;1.10;;;;;;;1.54;100.00;99217.72;5093594;28;20536;-74
2023/01/16 04:07:47;;;;;;;6.28;1.58;;;;;;;1.53;100.00;99221.75;5075792;28;20086;-75
2023/01/16 04:10:21;;;;;;;3.25;1.25;;;;;;;1.55;100.00;99217.25;5075965;28;20114;-73
2023/01/16 04:13:06;;;;;;;1.27;0.93;;;;;;;1.54;100.00;99210.06;5093735;28;20027;-72
2023/01/16 04:15:32;;;;;;;2.80;1.98;;;;;;;1.47;100.00;99208.28;5075575;28;20035;-73
2023/01/16 04:17:58;;;;;;;6.88;3.05;;;;;;;1.51;100.00;99210.16;5093702;28;20056;-72
2023/01/16 04:20:25;;;;;;;4.50;1.67;;;;;;;1.50;100.00;99205.81;5075792;28;20064;-73
2023/01/16 04:22:52;;;;;;;8.15;2.10;;;;;;;1.48;100.00;99201.41;5093623;28;20111;-73
2023/01/16 04:25:26;;;;;;;8.10;1.92;;;;;;;1.46;100.00;99209.50;5093387;28;20024;-74
2023/01/16 04:27:52;;;;;;;2.80;1.50;;;;;;;1.42;100.00;99202.44;5075551;28;20494;-74
2023/01/16 04:30:19;;;;;;;5.97;1.42;;;;;;;1.40;100.00;99197.25;5093049;28;20104;-73
2023/01/16 04:32:45;;;;;;;2.58;1.95;;;;;;;1.39;100.00;99204.16;5091874;28;20040;-74
2023/01/16 04:35:13;;;;;;;1.73;1.52;;;;;;;1.36;100.00;99190.97;5093328;28;20030;-73
2023/01/16 04:37:40;;;;;;;2.67;1.80;;;;;;;1.38;100.00;99193.34;5075226;28;20024;-74
2023/01/16 04:40:08;;;;;;;3.13;1.65;;;;;;;1.38;100.00;99190.53;5060627;28;20024;-73
2023/01/16 04:42:38;;;;;;;2.45;1.38;;;;;;;1.36;100.00;99185.34;5097268;28;20043;-74
2023/01/16 04:45:05;;;;;;;3.70;1.90;;;;;;;1.34;100.00;99181.44;5079094;28;20032;-74
2023/01/16 04:47:31;;;;;;;6.63;2.25;;;;;;;1.32;100.00;99183.91;5079053;28;20036;-74
2023/01/16 04:49:57;;;;;;;3.55;1.98;;;;;;;1.24;100.00;99162.91;5097791;28;20472;-74
2023/01/16 04:52:23;;;;;;;5.78;2.25;;;;;;;1.25;100.00;99168.09;5097101;28;20020;-74
2023/01/16 04:54:49;;;;;;;6.25;2.25;;;;;;;1.25;100.00;99162.47;5097268;28;20020;-74
2023/01/16 04:57:15;;;;;;;8.27;2.40;;;;;;;1.26;100.00;99161.22;5096823;28;20077;-73
2023/01/16 04:59:40;;;;;;;5.15;2.00;;;;;;;1.27;100.00;99157.16;5062263;28;20024;-74
2023/01/16 05:02:05;;;;;;;5.20;1.65;;;;;;;1.27;100.00;99157.16;5097029;28;20036;-73
2023/01/16 05:04:31;;;;;;;2.92;1.70;;;;;;;1.29;100.00;99149.06;5096842;28;20495;-72
2023/01/16 05:06:57;;;;;;;3.33;1.80;;;;;;;1.31;100.00;99142.94;5096777;28;20121;-73
2023/01/16 05:09:24;;;;;;;3.25;1.45;;;;;;;1.35;100.00;99152.06;5096919;28;20031;-73
2023/01/16 05:11:49;;;;;;;5.05;1.20;;;;;;;1.36;100.00;99140.34;5096603;28;20509;-74
2023/01/16 05:14:16;;;;;;;5.57;2.30;;;;;;;1.34;100.00;99136.41;5095636;28;20044;-73
2023/01/16 05:16:42;;;;;;;2.53;1.23;;;;;;;1.35;100.00;99133.16;5096525;28;20032;-74
2023/01/16 05:19:08;;;;;;;3.10;1.20;;;;;;;1.41;100.00;99136.13;5096457;28;20028;-73
2023/01/16 05:21:33;;;;;;;3.72;1.90;;;;;;;1.40;100.00;99121.28;5077111;28;20059;-73
2023/01/16 05:23:59;;;;;;;4.28;1.63;;;;;;;1.42;100.00;99123.66;5076905;28;20529;-74
2023/01/16 05:26:25;;;;;;;2.33;1.58;;;;;;;1.44;100.00;99127.59;5078064;28;20028;-76
2023/01/16 05:28:50;;;;;;;3.83;1.52;;;;;;;1.45;100.00;99126.31;5076544;28;20034;-74
2023/01/16 05:31:15;;;;;;;14.40;2.30;;;;;;;1.48;100.00;99116.97;5077940;28;20081;-74
2023/01/16 05:33:41;;;;;;;3.35;1.80;;;;;;;1.49;100.00;99117.75;5096232;28;20031;-74
2023/01/16 05:36:07;;;;;;;3.80;2.20;;;;;;;1.44;100.00;99107.88;5096036;28;20102;-74
2023/01/16 05:38:35;;;;;;;5.97;2.53;;;;;;;1.46;100.00;99101.78;5044725;28;20035;-75
2023/01/16 05:41:00;;;;;;;8.77;2.80;;;;;;;1.46;100.00;99093.34;5096035;28;20032;-76
2023/01/16 05:43:27;;;;;;;5.60;2.33;;;;;;;1.47;100.00;99095.69;5077706;28;20081;-74
2023/01/16 05:45:55;;;;;;;4.00;2.03;;;;;;;1.51;100.00;99091.94;5095958;28;20028;-74
2023/01/16 05:48:22;;;;;;;4.63;1.92;;;;;;;1.50;100.00;99076.31;5077956;28;20115;-74
2023/01/16 05:50:57;;;;;;;4.57;2.22;;;;;;;1.53;100.00;99070.56;5077108;28;20110;-75
2023/01/16 05:53:23;;;;;;;4.10;1.95;;;;;;;1.57;100.00;99078.84;5078134;28;20426;-76
2023/01/16 05:55:48;;;;;;;3.22;1.83;;;;;;;1.61;100.00;99069.03;5076700;28;20043;-76
2023/01/16 05:58:16;;;;;;;6.35;2.50;;;;;;;1.61;100.00;99068.22;5077959;28;20122;-75
2023/01/16 06:00:50;;;;;;;6.85;2.15;;;;;;;1.61;100.00;99065.41;5061432;28;20070;-75
2023/01/16 06:03:15;;;;;;;6.55;2.28;;;;;;;1.62;100.00;99059.31;5095837;28;20027;-76
2023/01/16 06:05:49;;;;;;;4.32;2.00;;;;;;;1.60;100.00;99064.63;5096057;28;20119;-78
2023/01/16 06:08:15;;;;;;;5.07;2.20;;;;;;;1.61;100.00;99054.16;5095871;28;20031;-82
2023/01/16 06:10:44;;;;;;;5.40;2.38;;;;;;;1.59;100.00;99057.44;5095546;28;20472;-80
2023/01/16 06:13:10;;;;;;;9.32;2.40;;;;;;;1.60;100.00;99044.16;5095758;28;20024;-75
2023/01/16 06:15:37;;;;;;;2.75;2.00;;;;;;;1.63;100.00;99043.22;5060918;28;20476;-76
2023/01/16 06:18:03;;;;;;;3.97;1.65;;;;;;;1.67;100.00;99038.22;5095444;28;20465;-76
2023/01/16 06:21:18;;;;;;;4.25;2.17;;;;;;;1.68;100.00;99037.00;5077054;28;20042;-76
2023/01/16 06:23:46;;;;;;;4.93;1.92;;;;;;;1.70;100.00;99040.13;5094104;28;20036;-75
2023/01/16 06:26:12;;;;;;;3.53;1.55;;;;;;;1.72;100.00;99024.34;5095184;28;20072;-72
2023/01/16 06:28:39;;;;;;;8.27;1.60;;;;;;;1.65;100.00;99015.41;5094817;28;20031;-74
2023/01/16 06:31:13;;;;;;;5.95;2.03;;;;;;;1.71;100.00;99022.75;5095036;28;20031;-74
2023/01/16 06:33:39;;;;;;;3.03;1.55;;;;;;;1.77;100.00;99014.50;5095253;28;20040;-73
2023/01/16 06:36:05;;;;;;;3.17;1.40;;;;;;;1.77;100.00;99017.31;5094523;28;20039;-73
2023/01/16 06:38:31;;;;;;;3.35;1.15;;;;;;;1.78;100.00;99021.69;5076798;28;20036;-72
2023/01/16 06:40:57;;;;;;;3.15;1.50;;;;;;;1.80;100.00;99030.44;5093075;28;20074;-73
2023/01/16 06:43:26;;;;;;;1.63;1.05;;;;;;;1.80;100.00;99030.44;5092872;28;20047;-74
2023/01/16 06:45:52;;;;;;;5.63;1.65;;;;;;;1.77;100.00;99025.75;5092701;28;20016;-74
2023/01/16 06:48:18;;;;;;;5.85;1.88;;;;;;;1.83;100.00;99033.13;5092911;28;20020;-74
2023/01/16 06:50:44;;;;;;;5.70;1.80;;;;;;;1.81;100.00;99029.22;5092757;28;20133;-74
2023/01/16 06:53:10;;;;;;;3.67;1.90;;;;;;;1.81;100.00;99024.34;5092495;28;20016;-74
2023/01/16 06:55:35;;;;;;;4.07;2.17;;;;;;;1.79;100.00;99026.09;5092271;28;20028;-74
2023/01/16 06:58:01;;;;;;;2.83;2.03;;;;;;;1.77;100.00;99042.66;5092238;28;20024;-73
2023/01/16 07:00:26;;;;;;;4.18;2.30;;;;;;;1.76;100.00;99033.41;5092138;28;20023;-73
2023/01/16 07:02:56;;;;;;;4.72;1.55;;;;;;;1.74;100.00;99035.94;5091803;28;20103;-74
2023/01/16 07:05:25;;;;;;;7.60;2.95;;;;;;;1.76;100.00;99038.25;5092712;28;20020;-75
2023/01/16 07:07:51;;;;;;;4.85;2.40;;;;;;;1.75;100.00;99022.63;5093687;28;20020;-74
2023/01/16 07:10:17;;;;;;;2.08;1.45;;;;;;;1.76;100.00;99029.81;5094353;28;20031;-73
2023/01/16 07:12:42;;;;;;;5.43;2.33;;;;;;;1.76;100.00;99022.16;5094126;28;20412;-75
2023/01/16 07:23:26;;;;;;;2.15;1.80;;;;;;;1.89;100.00;99020.03;5078591;28;20507;-74
2023/01/16 07:25:53;;;;;;;5.97;2.22;;;;;;;1.90;100.00;99010.31;5075908;28;20019;-74
2023/01/16 07:28:18;;;;;;;5.50;2.42;;;;;;;1.92;100.00;99007.81;5093882;28;20534;-74
2023/01/16 07:30:44;;;;;;;3.58;1.95;;;;;;;1.96;100.00;99010.47;5055521;28;20048;-74
2023/01/16 07:33:10;;;;;;;5.00;2.50;;;;;;;1.98;100.00;98996.72;5073682;28;20103;-74
2023/01/16 07:35:36;;;;;;;12.05;3.17;;;;;;;2.00;100.00;98997.03;5072274;28;20405;-74
2023/01/16 07:38:02;;;;;;;9.18;3.67;;;;;;;2.04;100.00;98992.03;5073519;28;20473;-72
2023/01/16 07:40:27;;;;;;;5.53;2.83;;;;;;;2.07;100.00;98988.28;5073510;28;20035;-74
2023/01/16 07:42:52;;;;;;;11.32;5.53;;;;;;;2.07;100.00;98976.22;5072284;28;20104;-74
2023/01/16 07:45:18;;;;;;;14.13;5.40;;;;;;;2.05;100.00;98971.06;5073390;28;20450;-73
2023/01/16 07:47:43;;;;;;;10.93;3.65;;;;;;;2.05;100.00;98964.63;5073389;28;20111;-75
2023/01/16 07:50:09;;;;;;;8.13;3.17;;;;;;;2.12;100.00;98964.34;5073262;28;20024;-75
2023/01/16 07:52:34;;;;;;;7.97;2.88;;;;;;;2.16;100.00;98971.38;5073292;28;20465;-73
2023/01/16 07:55:00;;;;;;;9.48;3.85;;;;;;;2.20;100.00;98960.75;5073482;28;20024;-74
2023/01/16 07:57:25;;;;;;;7.07;2.33;;;;;;;2.25;100.00;98962.16;5073450;28;20012;-73
2023/01/16 07:59:51;;;;;;;5.35;3.35;;;;;;;2.32;100.00;98957.00;5073490;28;20036;-73
2023/01/16 08:02:16;;;;;;;8.27;3.10;;;;;;;2.44;100.00;98951.69;5073473;28;20369;-73
2023/01/16 08:04:42;;;;;;;5.97;3.20;;;;;;;2.47;100.00;98951.50;5073280;28;20074;-74
2023/01/16 08:07:07;;;;;;;12.45;3.22;;;;;;;2.50;100.00;98950.56;5073085;28;20073;-74
2023/01/16 08:09:33;;;;;;;11.30;3.92;;;;;;;2.54;100.00;98939.91;5073247;28;20380;-74
2023/01/16 08:11:58;;;;;;;9.68;3.53;;;;;;;2.64;100.00;98932.22;5073252;28;20403;-75
2023/01/16 08:14:23;;;;;;;11.38;3.60;;;;;;;2.72;100.00;98922.19;5074159;28;20491;-75
2023/01/16 08:16:49;;;;;;;11.80;3.85;;;;;;;2.81;100.00;98927.81;5077352;28;20478;-74
2023/01/16 08:19:14;;;;;;;5.60;3.38;;;;;;;2.90;100.00;98913.66;5077167;28;20027;-75
2023/01/16 08:21:39;;;;;;;10.52;3.80;;;;;;;3.26;100.00;98926.09;5077090;28;20025;-73
2023/01/16 08:24:05;;;;;;;10.30;3.63;;;;;;;3.61;100.00;98925.13;5077217;28;20056;-73
2023/01/16 08:26:31;;;;;;;16.85;3.67;;;;;;;3.79;100.00;98924.22;5077365;28;20035;-73
2023/01/16 08:28:57;;;;;;;9.60;2.85;;;;;;;3.78;100.00;98916.22;5079573;28;20095;-74
2023/01/16 08:31:23;;;;;;;6.75;2.65;;;;;;;3.82;100.00;98917.59;5097290;28;20016;-74
2023/01/16 08:33:49;;;;;;;6.82;2.83;;;;;;;3.92;100.00;98915.56;5079086;28;20024;-74
2023/01/16 08:36:16;;;;;;;6.68;3.78;;;;;;;3.87;100.00;98908.50;5097075;28;20113;-73
2023/01/16 08:38:42;;;;;;;7.55;2.97;;;;;;;3.89;100.00;98913.69;5097196;28;20114;-74
2023/01/16 08:51:21;;;;;;;9.32;3.88;;;;;;;3.83;100.00;98909.91;5096990;28;20487;-75
2023/01/16 08:52:08;;;;;;;9.15;1.92;;;;;;;3.76;100.00;98901.81;5071451;28;20101;-75
2023/01/16 08:54:33;;;;;;;3.97;2.10;;;;;;;3.77;100.00;98892.88;5097069;28;20452;-74
2023/01/16 08:56:58;;;;;;;5.30;2.17;;;;;;;3.76;100.00;98894.13;5096855;28;20030;-74
2023/01/16 08:59:24;;;;;;;5.93;1.90;;;;;;;3.79;100.00;98907.28;5096510;28;20054;-73
2023/01/16 09:01:49;;;;;;;5.32;2.22;;;;;;;3.75;100.00;98900.25;5096775;28;20069;-73
2023/01/16 09:04:14;;;;;;;6.55;2.17;;;;;;;3.81;100.00;98887.03;5096553;28;20078;-74
2023/01/16 09:06:40;;;;;;;5.18;2.05;;;;;;;3.84;100.00;98886.06;5078364;28;20093;-75
2023/01/16 09:09:06;;;;;;;4.65;2.00;;;;;;;3.94;100.00;98893.25;5096432;28;20477;-75
2023/01/16 09:14:17;;;;;;;3.83;1.40;;;;;;;3.96;100.00;98877.38;5096709;28;20093;-74
2023/01/16 09:16:43;;;;;;;7.50;2.85;;;;;;;3.94;100.00;98860.13;5096308;28;20035;-75
2023/01/16 09:19:08;;;;;;;6.07;2.22;;;;;;;4.02;100.00;98857.69;5078246;28;20024;-74
2023/01/16 09:21:34;;;;;;;3.30;1.52;;;;;;;4.02;100.00;98858.47;5096127;28;20036;-74
2023/01/16 09:23:59;;;;;;;5.55;1.23;;;;;;;4.03;100.00;98833.81;5096296;28;20024;-74
2023/01/16 09:26:25;;;;;;;4.47;1.10;;;;;;;4.06;100.00;98833.66;5095871;28;20020;-73
2023/01/16 09:28:50;;;;;;;5.85;1.30;;;;;;;4.08;100.00;98833.94;5096169;28;20024;-73
2023/01/16 09:31:16;;;;;;;7.05;1.25;;;;;;;4.04;100.00;98816.38;5077635;28;20538;-75
2023/01/16 09:33:41;;;;;;;2.40;1.15;;;;;;;4.03;100.00;98803.50;5096152;28;20027;-75
2023/01/16 09:36:07;;;;;;;2.50;1.20;;;;;;;4.08;100.00;98802.06;5078072;28;20465;-75
2023/01/16 09:38:33;;;;;;;3.33;1.38;;;;;;;4.15;100.00;98803.72;5095825;28;20488;-75
2023/01/16 09:40:58;;;;;;;3.40;1.38;;;;;;;4.21;100.00;98810.28;5096061;28;20024;-74
2023/01/16 09:43:36;;;;;;;2.30;1.17;;;;;;;4.27;100.00;98811.13;5095877;28;20058;-73
2023/01/16 09:46:25;;;;;;;2.83;1.42;;;;;;;4.31;100.00;98797.59;5095903;28;20028;-75
2023/01/16 09:48:55;;;;;;;4.20;1.50;;;;;;;4.37;100.00;98795.63;5077814;28;20040;-74
2023/01/16 09:51:32;;;;;;;5.80;1.55;;;;;;;4.40;100.00;98794.69;5077535;28;20024;-75
2023/01/16 09:59:41;;;;;;;;;;;;;;;4.40;100.00;98783.38;5080946;28;20103;-75
2023/01/16 10:02:34;;;;;;;2.55;1.25;;;;;;;4.44;100.00;98784.72;5077303;28;19950;-75
2023/01/16 10:05:04;;;;;;;4.68;1.20;;;;;;;4.47;100.00;98788.63;5094882;28;20036;-74
2023/01/16 10:07:38;;;;;;;6.15;1.60;;;;;;;4.53;100.00;98766.09;5077576;28;20134;-74
2023/01/16 10:10:22;;;;;;;2.88;1.52;;;;;;;4.57;100.00;98766.66;5095600;28;20047;-74
2023/01/16 10:12:56;;;;;;;2.80;1.98;;;;;;;4.59;100.00;98756.44;5095166;28;20031;-74
2023/01/16 10:15:46;;;;;;;5.88;1.13;;;;;;;4.64;100.00;98760.63;5095222;28;20468;-74
2023/01/16 10:18:23;;;;;;;3.40;1.77;;;;;;;4.65;100.00;98750.88;5095049;28;20502;-74
2023/01/16 10:20:51;;;;;;;6.55;2.17;;;;;;;4.70;100.00;98750.16;5095768;28;20035;-75
2023/01/16 10:23:25;;;;;;;9.13;2.88;;;;;;;4.78;100.00;98732.28;5095331;28;20034;-74
2023/01/16 10:26:03;;;;;;;4.85;1.85;;;;;;;4.81;100.00;98736.16;5077485;28;20028;-73
2023/01/16 10:28:45;;;;;;;23.10;4.38;;;;;;;4.82;100.00;98723.59;5077322;28;20063;-73
2023/01/16 10:31:26;;;;;;;10.10;1.80;;;;;;;4.88;100.00;98715.97;5053753;28;20048;-75
2023/01/16 10:34:01;;;;;;;11.30;2.35;;;;;;;4.89;100.00;98711.88;5055192;28;20063;-75
2023/01/16 10:36:31;;;;;;;13.35;3.13;;;;;;;4.89;100.00;98701.31;5054651;28;20442;-74
2023/01/16 10:38:58;;;;;;;10.73;3.13;;;;;;;4.92;100.00;98696.72;5054441;28;20067;-74
2023/01/16 10:50:01;;;;;;;19.63;3.78;;;;;;;4.90;100.00;98665.31;5054130;28;20086;-74
2023/01/16 10:52:27;;;;;;;10.77;2.70;;;;;;;4.88;100.00;98657.31;5054582;28;20029;-74
2023/01/16 10:54:54;;;;;;;9.57;2.95;;;;;;;4.89;100.00;98661.72;5053511;28;20458;-74
2023/01/16 10:57:20;;;;;;;13.57;4.07;;;;;;;4.86;100.00;98654.19;5053152;28;20467;-74
2023/01/16 10:59:46;;;;;;;9.52;2.67;;;;;;;4.91;100.00;98645.00;5052864;28;20025;-75
2023/01/16 11:02:25;;;;;;;12.63;3.17;;;;;;;4.87;100.00;98643.66;5054224;28;20099;-74
2023/01/16 11:04:52;;;;;;;8.60;2.60;;;;;;;4.89;100.00;98635.47;5052833;28;20037;-75
2023/01/16 11:07:19;;;;;;;13.38;2.47;;;;;;;4.86;100.00;98633.59;5054059;28;20086;-75
2023/01/16 11:09:45;;;;;;;6.07;3.80;;;;;;;4.87;100.00;98621.00;5053911;28;20103;-75
2023/01/16 11:18:32;;;;;;;10.18;3.38;;;;;;;4.91;100.00;98602.53;5054228;28;20086;-74
2023/01/16 11:21:18;;;;;;;7.63;3.05;;;;;;;4.95;100.00;98593.88;5053911;28;20036;-74
2023/01/16 11:23:47;;;;;;;3.03;1.92;;;;;;;4.93;100.00;98585.84;5053880;28;20024;-76
2023/01/16 11:26:13;;;;;;;6.00;3.15;;;;;;;4.96;100.00;98588.97;5055151;28;20068;-77
2023/01/16 11:28:44;;;;;;;16.00;2.75;;;;;;;5.00;100.00;98586.72;5055531;28;20032;-76
2023/01/16 11:31:14;;;;;;;12.25;3.10;;;;;;;5.05;100.00;98575.47;5019871;28;20044;-77
2023/01/16 11:34:00;;;;;;;3.97;2.13;;;;;;;5.04;100.00;98567.47;5037670;28;20021;-77
2023/01/16 11:36:28;;;;;;;5.35;2.17;;;;;;;5.07;100.00;98558.72;5034304;28;20494;-77
2023/01/16 11:38:55;;;;;;;7.82;3.08;;;;;;;5.08;100.00;98560.28;5018162;28;20144;-77
2023/01/16 11:41:27;;;;;;;4.60;1.85;;;;;;;5.09;100.00;98550.53;5037034;28;20029;-77
2023/01/16 11:47:22;;;;;;;6.63;2.10;;;;;;;5.12;100.00;98534.59;5033561;28;20505;-77
2023/01/16 11:49:50;;;;;;;7.65;2.97;;;;;;;5.17;100.00;98536.69;5034610;28;20033;-78
2023/01/16 11:52:28;;;;;;;14.38;2.65;;;;;;;5.17;100.00;98528.22;5018063;28;20026;-78
2023/01/16 11:55:09;;;;;;;9.75;2.13;;;;;;;5.22;100.00;98516.94;5035527;28;20032;-76
2023/01/16 11:57:37;;;;;;;5.32;1.70;;;;;;;5.26;100.00;98517.50;5040582;28;20056;-76
2023/01/16 12:00:40;;;;;;;6.57;2.10;;;;;;;5.30;100.00;98512.38;5034561;28;20040;-78
2023/01/16 12:03:07;;;;;;;14.27;3.88;;;;;;;5.30;100.00;98503.13;5036207;28;20379;-77
2023/01/16 12:05:53;;;;;;;7.28;2.13;;;;;;;5.30;100.00;98492.56;5036784;28;20071;-77
2023/01/16 12:08:41;;;;;;;8.02;2.58;;;;;;;5.34;100.00;98493.13;5036815;28;20021;-78
2023/01/16 12:11:12;;;;;;;8.02;4.07;;;;;;;5.32;100.00;98475.84;5038909;28;20022;-77
2023/01/16 12:16:47;;;;;;;10.75;2.70;;;;;;;5.40;100.00;98483.91;5054745;28;20040;-77
2023/01/16 12:19:55;;;;;;;4.68;2.20;;;;;;;5.40;100.00;98467.66;5052556;28;20397;-73
2023/01/16 12:22:29;;;;;;;11.25;2.67;;;;;;;5.43;100.00;98463.06;5023424;28;20033;-75
2023/01/16 12:25:00;;;;;;;7.55;3.15;;;;;;;5.45;100.00;98460.50;5033630;28;20479;-75
2023/01/16 12:27:42;;;;;;;8.43;3.85;;;;;;;5.45;100.00;98452.78;5033327;28;20076;-72
2023/01/16 12:30:37;;;;;;;5.55;3.38;;;;;;;5.45;100.00;98437.84;5057229;28;20053;-73
2023/01/16 12:33:26;;;;;;;9.43;3.00;;;;;;;5.44;100.00;98427.81;5073401;28;20358;-73
2023/01/16 12:36:43;;;;;;;6.38;3.45;;;;;;;5.31;100.00;98419.72;5073319;28;20029;-73
2023/01/16 12:39:23;;;;;;;8.98;2.60;;;;;;;5.38;100.00;98425.69;5038251;28;20045;-72
2023/01/16 12:45:20;;;;;;;4.60;1.83;;;;;;;5.45;100.00;98409.53;5058685;28;20034;-77
2023/01/16 12:48:16;;;;;;;5.93;2.53;;;;;;;5.40;100.00;98410.28;5073234;28;20036;-80
2023/01/16 12:50:51;;;;;;;11.60;2.60;;;;;;;5.36;100.00;98405.59;5073402;28;20028;-80